Emprendedora — J7CO2 — position and weather

sailwx.info

Track history (hours):
 
Tides and Currents Weather Stations Pressure Air Temp Water Temp Dewpoint Dewpoint Depression Visibility Wind Speed Wind Dir Waves Ship Positions

Emprendedora

Last reported at 2017-Sep-16 23:23 UTC. Time now 2017-Sep-21 03:21 UTC.
Position N 16°56' W 062°26'.

Length 77 m; draft 3.1 m.

Type: . MMSI: 325631000.

Date/timePositionNaut miles runAvg speedWind from/ knotsBaromVisibWave heightAir tempDewpointWater temp
2017-Sep-16 23:23N 16°56' W 062°26'5 9.9
2017-Sep-16 22:53N 16°53' W 062°21'410.4
2017-Sep-16 22:30N 16°51' W 062°18'510.2
2017-Sep-16 22:00N 16°48' W 062°13'1 1.3
2017-Sep-16 21:27N 16°48' W 062°12'0 0.0
2017-Sep-16 20:59N 16°48' W 062°12'0 0.0
2017-Sep-16 20:30N 16°48' W 062°12'1 1.7
2017-Sep-16 20:00N 16°49' W 062°13'4 8.9
2017-Sep-16 19:30N 16°53' W 062°12'510.5
2017-Sep-16 19:00N 16°56' W 062°08'510.4
2017-Sep-16 18:30N 16°60' W 062°04'510.2
2017-Sep-16 18:00N 17°04' W 062°01'510.6
2017-Sep-16 17:30N 17°08' W 061°57'5 9.4
2017-Sep-16 17:00N 17°08' W 061°52'1 1.8
2017-Sep-16 16:29N 17°07' W 061°51'0 0.0
2017-Sep-16 15:59N 17°07' W 061°51'0 0.0
2017-Sep-16 15:29N 17°07' W 061°51'0 0.0
2017-Sep-16 14:59N 17°07' W 061°51'0 0.0
2017-Sep-16 14:29N 17°07' W 061°51'0 0.0
2017-Sep-16 13:59N 17°07' W 061°51'0 0.0
2017-Sep-16 13:29N 17°07' W 061°51'0 0.0
2017-Sep-16 12:59N 17°07' W 061°51'0 0.0
2017-Sep-16 12:29N 17°07' W 061°51'0 0.0
2017-Sep-16 11:59N 17°07' W 061°51'0 0.0
2017-Sep-16 11:29N 17°07' W 061°51'1 1.7
2017-Sep-16 11:00N 17°08' W 061°52'2 3.0
2017-Sep-16 10:30N 17°08' W 061°53'0 0.0
2017-Sep-16 09:57N 17°08' W 061°53'0 0.0
2017-Sep-16 09:30N 17°08' W 061°53'0 0.0
2017-Sep-16 09:00N 17°08' W 061°53'0 0.0
2017-Sep-16 08:30N 17°08' W 061°53'0 0.0
2017-Sep-16 08:00N 17°08' W 061°53'0 0.0
2017-Sep-16 07:30N 17°08' W 061°53'0 0.0
2017-Sep-16 07:00N 17°08' W 061°53'0 0.0
2017-Sep-16 06:30N 17°08' W 061°53'0 0.0
2017-Sep-16 06:00N 17°08' W 061°53'0 0.0
2017-Sep-16 05:30N 17°08' W 061°53'0 0.0
2017-Sep-16 05:00N 17°08' W 061°53'0 0.0
2017-Sep-16 04:30N 17°08' W 061°53'0 0.0
2017-Sep-16 04:01N 17°08' W 061°53'0 0.0
2017-Sep-16 03:31N 17°08' W 061°53'0 0.0
2017-Sep-16 03:01N 17°08' W 061°53'0 0.0
2017-Sep-16 02:31N 17°08' W 061°53'4 7.8
2017-Sep-16 02:01N 17°10' W 061°57'5 9.5
2017-Sep-16 01:30N 17°12' W 062°02'5 9.4
2017-Sep-16 01:00N 17°15' W 062°06'5 9.8
2017-Sep-16 00:31N 17°17' W 062°10'510.0
2017-Sep-16 00:01N 17°20' W 062°15'510.0
2017-Sep-15 23:31N 17°22' W 062°19'510.2
2017-Sep-15 23:00N 17°25' W 062°24'  
2017-Sep-13 13:23N 17°27' W 062°29'4 9.7
2017-Sep-13 12:59N 17°25' W 062°25'5 9.8
2017-Sep-13 12:30N 17°23' W 062°21'510.0
2017-Sep-13 12:00N 17°20' W 062°16'510.0
2017-Sep-13 11:30N 17°18' W 062°12'510.2
2017-Sep-13 11:00N 17°15' W 062°07'510.4
2017-Sep-13 10:30N 17°13' W 062°03'510.4
2017-Sep-13 10:00N 17°10' W 061°58'510.4
2017-Sep-13 09:30N 17°08' W 061°53'2 3.3
2017-Sep-13 09:00N 17°07' W 061°51'0 0.0
2017-Sep-13 08:30N 17°07' W 061°51'0 0.0
2017-Sep-13 08:00N 17°07' W 061°51'0 0.0
2017-Sep-13 07:30N 17°07' W 061°51'0 0.0
2017-Sep-13 07:00N 17°07' W 061°51'0 0.0
2017-Sep-13 06:30N 17°07' W 061°51'0 0.0
2017-Sep-13 06:00N 17°07' W 061°51'0 0.0
2017-Sep-13 05:30N 17°07' W 061°51'0 0.0
2017-Sep-13 05:00N 17°07' W 061°51'0 0.0
2017-Sep-13 04:30N 17°07' W 061°51'0 0.0
2017-Sep-13 04:00N 17°07' W 061°51'0 0.0
2017-Sep-13 03:30N 17°07' W 061°51'0 0.0
2017-Sep-13 03:00N 17°07' W 061°51'0 0.0
2017-Sep-13 02:30N 17°07' W 061°51'0 0.0
2017-Sep-13 02:00N 17°07' W 061°51'0 0.0
2017-Sep-13 01:30N 17°07' W 061°51'0 0.0
2017-Sep-13 01:00N 17°07' W 061°51'0 0.0
2017-Sep-13 00:30N 17°07' W 061°51'0 0.0
2017-Sep-13 00:00N 17°07' W 061°51'0 0.0
2017-Sep-12 23:30N 17°07' W 061°51'0 0.0
2017-Sep-12 23:00N 17°07' W 061°51'0 0.0
2017-Sep-12 22:30N 17°07' W 061°51'0 0.0
2017-Sep-12 22:00N 17°07' W 061°51'0 0.0
2017-Sep-12 21:30N 17°07' W 061°51'0 0.0
2017-Sep-12 21:00N 17°07' W 061°51'0 0.0
2017-Sep-12 20:30N 17°07' W 061°51'0 0.0
2017-Sep-12 20:00N 17°07' W 061°51'0 0.0
2017-Sep-12 19:30N 17°07' W 061°51'0 0.0
2017-Sep-12 19:00N 17°07' W 061°51'0 0.0
2017-Sep-12 18:30N 17°07' W 061°51'0 0.0
2017-Sep-12 18:00N 17°07' W 061°51'0 0.0
2017-Sep-12 17:30N 17°07' W 061°51'0 0.0
2017-Sep-12 17:00N 17°07' W 061°51'0 0.0
2017-Sep-12 16:30N 17°07' W 061°51'0 0.0
2017-Sep-12 15:57N 17°07' W 061°51'0 0.0
2017-Sep-12 15:30N 17°07' W 061°51'0 0.0
2017-Sep-12 15:00N 17°07' W 061°51'0 0.0
2017-Sep-12 14:30N 17°07' W 061°51'0 0.0
2017-Sep-12 14:00N 17°07' W 061°51'0 0.0
2017-Sep-12 13:30N 17°07' W 061°51'0 0.1
2017-Sep-12 13:01N 17°07' W 061°51'4 7.4
2017-Sep-12 12:31N 17°09' W 061°55'510.0
2017-Sep-12 12:01N 17°11' W 061°60'5 9.8
2017-Sep-12 11:30N 17°14' W 062°04'5 9.8
2017-Sep-12 11:01N 17°16' W 062°08'5 9.9
2017-Sep-12 10:31N 17°19' W 062°13'510.0
2017-Sep-12 10:01N 17°22' W 062°17'510.1
2017-Sep-12 09:30N 17°24' W 062°22'510.2
2017-Sep-12 08:59N 17°27' W 062°26'44 1.9
2017-Sep-11 10:07N 16°44' W 062°32'110.5
2017-Sep-11 10:00N 16°43' W 062°31'510.4
2017-Sep-11 09:30N 16°39' W 062°28'710.4
2017-Sep-11 08:52N 16°34' W 062°23'4 9.9
2017-Sep-11 08:30N 16°31' W 062°21'5 9.8
2017-Sep-11 08:01N 16°27' W 062°17'12510.4
2017-Sep-10 20:03N 14°38' W 061°14'011.8
2017-Sep-10 20:00N 14°38' W 061°14'611.5
2017-Sep-10 19:30N 14°33' W 061°11'611.3
2017-Sep-10 19:01N 14°28' W 061°08'511.0
2017-Sep-10 18:31N 14°24' W 061°05'510.5
2017-Sep-10 18:01N 14°19' W 061°03'  
Track history (hours):
 
Tides and Currents Weather Stations Pressure Air Temp Water Temp Dewpoint Dewpoint Depression Visibility Wind Speed Wind Dir Waves Ship Positions

Emprendedora

Last reported at 2017-Sep-16 23:23 UTC. Time now 2017-Sep-21 03:21 UTC.
Position N 16°56' W 062°26'.

Length 77 m; draft 3.1 m.

Type: . MMSI: 325631000.

Date/timePositionNaut miles runAvg speedWind from/ knotsBaromVisibWave heightAir tempDewpointWater temp
2017-Sep-16 23:23N 16°56' W 062°26'5 9.9
2017-Sep-16 22:53N 16°53' W 062°21'410.4
2017-Sep-16 22:30N 16°51' W 062°18'510.2
2017-Sep-16 22:00N 16°48' W 062°13'1 1.3
2017-Sep-16 21:27N 16°48' W 062°12'0 0.0
2017-Sep-16 20:59N 16°48' W 062°12'0 0.0
2017-Sep-16 20:30N 16°48' W 062°12'1 1.7
2017-Sep-16 20:00N 16°49' W 062°13'4 8.9
2017-Sep-16 19:30N 16°53' W 062°12'510.5
2017-Sep-16 19:00N 16°56' W 062°08'510.4
2017-Sep-16 18:30N 16°60' W 062°04'510.2
2017-Sep-16 18:00N 17°04' W 062°01'510.6
2017-Sep-16 17:30N 17°08' W 061°57'5 9.4
2017-Sep-16 17:00N 17°08' W 061°52'1 1.8
2017-Sep-16 16:29N 17°07' W 061°51'0 0.0
2017-Sep-16 15:59N 17°07' W 061°51'0 0.0
2017-Sep-16 15:29N 17°07' W 061°51'0 0.0
2017-Sep-16 14:59N 17°07' W 061°51'0 0.0
2017-Sep-16 14:29N 17°07' W 061°51'0 0.0
2017-Sep-16 13:59N 17°07' W 061°51'0 0.0
2017-Sep-16 13:29N 17°07' W 061°51'0 0.0
2017-Sep-16 12:59N 17°07' W 061°51'0 0.0
2017-Sep-16 12:29N 17°07' W 061°51'0 0.0
2017-Sep-16 11:59N 17°07' W 061°51'0 0.0
2017-Sep-16 11:29N 17°07' W 061°51'1 1.7
2017-Sep-16 11:00N 17°08' W 061°52'2 3.0
2017-Sep-16 10:30N 17°08' W 061°53'0 0.0
2017-Sep-16 09:57N 17°08' W 061°53'0 0.0
2017-Sep-16 09:30N 17°08' W 061°53'0 0.0
2017-Sep-16 09:00N 17°08' W 061°53'0 0.0
2017-Sep-16 08:30N 17°08' W 061°53'0 0.0
2017-Sep-16 08:00N 17°08' W 061°53'0 0.0
2017-Sep-16 07:30N 17°08' W 061°53'0 0.0
2017-Sep-16 07:00N 17°08' W 061°53'0 0.0
2017-Sep-16 06:30N 17°08' W 061°53'0 0.0
2017-Sep-16 06:00N 17°08' W 061°53'0 0.0
2017-Sep-16 05:30N 17°08' W 061°53'0 0.0
2017-Sep-16 05:00N 17°08' W 061°53'0 0.0
2017-Sep-16 04:30N 17°08' W 061°53'0 0.0
2017-Sep-16 04:01N 17°08' W 061°53'0 0.0
2017-Sep-16 03:31N 17°08' W 061°53'0 0.0
2017-Sep-16 03:01N 17°08' W 061°53'0 0.0
2017-Sep-16 02:31N 17°08' W 061°53'4 7.8
2017-Sep-16 02:01N 17°10' W 061°57'5 9.5
2017-Sep-16 01:30N 17°12' W 062°02'5 9.4
2017-Sep-16 01:00N 17°15' W 062°06'5 9.8
2017-Sep-16 00:31N 17°17' W 062°10'510.0
2017-Sep-16 00:01N 17°20' W 062°15'510.0
2017-Sep-15 23:31N 17°22' W 062°19'510.2
2017-Sep-15 23:00N 17°25' W 062°24'  
2017-Sep-13 13:23N 17°27' W 062°29'4 9.7
2017-Sep-13 12:59N 17°25' W 062°25'5 9.8
2017-Sep-13 12:30N 17°23' W 062°21'510.0
2017-Sep-13 12:00N 17°20' W 062°16'510.0
2017-Sep-13 11:30N 17°18' W 062°12'510.2
2017-Sep-13 11:00N 17°15' W 062°07'510.4
2017-Sep-13 10:30N 17°13' W 062°03'510.4
2017-Sep-13 10:00N 17°10' W 061°58'510.4
2017-Sep-13 09:30N 17°08' W 061°53'2 3.3
2017-Sep-13 09:00N 17°07' W 061°51'0 0.0
2017-Sep-13 08:30N 17°07' W 061°51'0 0.0
2017-Sep-13 08:00N 17°07' W 061°51'0 0.0
2017-Sep-13 07:30N 17°07' W 061°51'0 0.0
2017-Sep-13 07:00N 17°07' W 061°51'0 0.0
2017-Sep-13 06:30N 17°07' W 061°51'0 0.0
2017-Sep-13 06:00N 17°07' W 061°51'0 0.0
2017-Sep-13 05:30N 17°07' W 061°51'0 0.0
2017-Sep-13 05:00N 17°07' W 061°51'0 0.0
2017-Sep-13 04:30N 17°07' W 061°51'0 0.0
2017-Sep-13 04:00N 17°07' W 061°51'0 0.0
2017-Sep-13 03:30N 17°07' W 061°51'0 0.0
2017-Sep-13 03:00N 17°07' W 061°51'0 0.0
2017-Sep-13 02:30N 17°07' W 061°51'0 0.0
2017-Sep-13 02:00N 17°07' W 061°51'0 0.0
2017-Sep-13 01:30N 17°07' W 061°51'0 0.0
2017-Sep-13 01:00N 17°07' W 061°51'0 0.0
2017-Sep-13 00:30N 17°07' W 061°51'0 0.0
2017-Sep-13 00:00N 17°07' W 061°51'0 0.0
2017-Sep-12 23:30N 17°07' W 061°51'0 0.0
2017-Sep-12 23:00N 17°07' W 061°51'0 0.0
2017-Sep-12 22:30N 17°07' W 061°51'0 0.0
2017-Sep-12 22:00N 17°07' W 061°51'0 0.0
2017-Sep-12 21:30N 17°07' W 061°51'0 0.0
2017-Sep-12 21:00N 17°07' W 061°51'0 0.0
2017-Sep-12 20:30N 17°07' W 061°51'0 0.0
2017-Sep-12 20:00N 17°07' W 061°51'0 0.0
2017-Sep-12 19:30N 17°07' W 061°51'0 0.0
2017-Sep-12 19:00N 17°07' W 061°51'0 0.0
2017-Sep-12 18:30N 17°07' W 061°51'0 0.0
2017-Sep-12 18:00N 17°07' W 061°51'0 0.0
2017-Sep-12 17:30N 17°07' W 061°51'0 0.0
2017-Sep-12 17:00N 17°07' W 061°51'0 0.0
2017-Sep-12 16:30N 17°07' W 061°51'0 0.0
2017-Sep-12 15:57N 17°07' W 061°51'0 0.0
2017-Sep-12 15:30N 17°07' W 061°51'0 0.0
2017-Sep-12 15:00N 17°07' W 061°51'0 0.0
2017-Sep-12 14:30N 17°07' W 061°51'0 0.0
2017-Sep-12 14:00N 17°07' W 061°51'0 0.0
2017-Sep-12 13:30N 17°07' W 061°51'0 0.1
2017-Sep-12 13:01N 17°07' W 061°51'4 7.4
2017-Sep-12 12:31N 17°09' W 061°55'510.0
2017-Sep-12 12:01N 17°11' W 061°60'5 9.8
2017-Sep-12 11:30N 17°14' W 062°04'5 9.8
2017-Sep-12 11:01N 17°16' W 062°08'5 9.9
2017-Sep-12 10:31N 17°19' W 062°13'510.0
2017-Sep-12 10:01N 17°22' W 062°17'510.1
2017-Sep-12 09:30N 17°24' W 062°22'510.2
2017-Sep-12 08:59N 17°27' W 062°26'44 1.9
2017-Sep-11 10:07N 16°44' W 062°32'110.5
2017-Sep-11 10:00N 16°43' W 062°31'510.4
2017-Sep-11 09:30N 16°39' W 062°28'710.4
2017-Sep-11 08:52N 16°34' W 062°23'4 9.9
2017-Sep-11 08:30N 16°31' W 062°21'5 9.8
2017-Sep-11 08:01N 16°27' W 062°17'12510.4
2017-Sep-10 20:03N 14°38' W 061°14'011.8
2017-Sep-10 20:00N 14°38' W 061°14'611.5
2017-Sep-10 19:30N 14°33' W 061°11'611.3
2017-Sep-10 19:01N 14°28' W 061°08'511.0
2017-Sep-10 18:31N 14°24' W 061°05'510.5
2017-Sep-10 18:01N 14°19' W 061°03'  

Dump ship's entire track history